CheckWX is a tool to help pilots better visualize weather data.  It is not intended as a substitute for an official pre-flight weather briefing.

14:15:55 UTC

SKPE TAF
Matecaña International Airport
Pereira, Colombia
TAF SKPE 151030Z 1512/1612 10006KT 9999 FEW017 SCT090 BECMG 1514/1516 31008KT TEMPO 1520/1522 7000 TSRA SCT015CB BKN080 BECMG 1523/1601 11004KT TX29/1519Z TN19/1611Z

Sep-15@
12:00 UTC

Sep-15 @ 12:00 UTC

Sep-15@
14:00 UTC

Sep-15 @ 14:00 UTC

TAF SKPE 151030Z 1512/1612 10006KT 9999 FEW017 SCT090

Expired

Wind
  • 100° at 6 KTS
Cloud Levels
  • Few at 1,700' AGL
  • Scattered at 9,000' AGL

Sep-15@
14:00 UTC

Sep-15 @ 14:00 UTC

Sep-15@
23:00 UTC

Sep-15 @ 23:00 UTC

BECMG 1514/1516 31008KT

Becoming

Becoming Conditions expected by Sun, Sep 15, 2019 @ 16:00 UTC

Wind
  • 310° at 8 KTS
Cloud Levels
  • Few at 1,700' AGL
  • Scattered at 9,000' AGL

Sep-15@
20:00 UTC

Sep-15 @ 20:00 UTC

Sep-15@
22:00 UTC

Sep-15 @ 22:00 UTC

TEMPO 1520/1522 7000 TSRA SCT015CB BKN080

Temporary

Temporary Changes expected for less than half the time period

Conditions
Thunderstorm, Rain
Cloud Levels
  • Scattered at 1,500' AGL
  • Broken at 8,000' AGL

Sep-15@
23:00 UTC

Sep-15 @ 23:00 UTC

Sep-16@
12:00 UTC

Sep-16 @ 12:00 UTC

BECMG 1523/1601 11004KT TX29/1519Z TN19/1611Z

Becoming

Becoming Conditions expected by Mon, Sep 16, 2019 @ 01:00 UTC

Wind
  • 110° at 4 KTS
Cloud Levels
  • Few at 1,700' AGL
  • Scattered at 9,000' AGL